sensor_id;sensor_type;location;lat;lon;timestamp;temperature;humidity
55721;DHT22;41626;53.098;6.168;2022-09-09T00:01:32;14.50;99.90
55721;DHT22;41626;53.098;6.168;2022-09-09T00:04:09;14.50;99.90
55721;DHT22;41626;53.098;6.168;2022-09-09T00:09:28;14.30;99.90
55721;DHT22;41626;53.098;6.168;2022-09-09T00:12:35;14.40;99.90
55721;DHT22;41626;53.098;6.168;2022-09-09T00:15:11;14.50;99.90
55721;DHT22;41626;53.098;6.168;2022-09-09T00:20:40;14.30;99.90
55721;DHT22;41626;53.098;6.168;2022-09-09T00:23:17;14.40;99.90
55721;DHT22;41626;53.098;6.168;2022-09-09T00:28:19;14.30;99.90
55721;DHT22;41626;53.098;6.168;2022-09-09T00:30:46;14.40;99.90
55721;DHT22;41626;53.098;6.168;2022-09-09T00:33:18;14.20;99.90
55721;DHT22;41626;53.098;6.168;2022-09-09T00:35:57;14.20;99.90
55721;DHT22;41626;53.098;6.168;2022-09-09T00:38:43;14.10;99.90
55721;DHT22;41626;53.098;6.168;2022-09-09T00:41:29;14.30;99.90
55721;DHT22;41626;53.098;6.168;2022-09-09T00:44:11;14.10;99.90
55721;DHT22;41626;53.098;6.168;2022-09-09T00:50:03;14.20;99.90
55721;DHT22;41626;53.098;6.168;2022-09-09T00:55:16;14.00;99.90
55721;DHT22;41626;53.098;6.168;2022-09-09T00:57:44;14.10;99.90
55721;DHT22;41626;53.098;6.168;2022-09-09T01:02:52;14.00;99.90
55721;DHT22;41626;53.098;6.168;2022-09-09T01:08:09;14.20;99.90
55721;DHT22;41626;53.098;6.168;2022-09-09T01:10:51;14.00;99.90
55721;DHT22;41626;53.098;6.168;2022-09-09T01:13:29;14.10;99.90
55721;DHT22;41626;53.098;6.168;2022-09-09T01:15:58;14.20;99.90
55721;DHT22;41626;53.098;6.168;2022-09-09T01:18:29;13.90;99.90
55721;DHT22;41626;53.098;6.168;2022-09-09T01:26:39;14.10;99.90
55721;DHT22;41626;53.098;6.168;2022-09-09T01:29:14;14.00;99.90
55721;DHT22;41626;53.098;6.168;2022-09-09T01:34:23;13.90;99.90
55721;DHT22;41626;53.098;6.168;2022-09-09T01:37:08;14.10;99.90
55721;DHT22;41626;53.098;6.168;2022-09-09T01:39:36;14.10;99.90
55721;DHT22;41626;53.098;6.168;2022-09-09T01:42:05;14.00;99.90
55721;DHT22;41626;53.098;6.168;2022-09-09T01:44:32;13.90;99.90
55721;DHT22;41626;53.098;6.168;2022-09-09T01:46:58;14.10;99.90
55721;DHT22;41626;53.098;6.168;2022-09-09T01:49:23;14.10;99.90
55721;DHT22;41626;53.098;6.168;2022-09-09T01:51:53;14.00;99.90
55721;DHT22;41626;53.098;6.168;2022-09-09T01:54:24;14.10;99.90
55721;DHT22;41626;53.098;6.168;2022-09-09T02:03:05;14.10;99.90
55721;DHT22;41626;53.098;6.168;2022-09-09T02:05:44;14.20;99.90
55721;DHT22;41626;53.098;6.168;2022-09-09T02:08:20;14.00;99.90
55721;DHT22;41626;53.098;6.168;2022-09-09T02:13:21;14.20;99.90
55721;DHT22;41626;53.098;6.168;2022-09-09T02:18:24;14.10;99.90
55721;DHT22;41626;53.098;6.168;2022-09-09T02:20:52;14.20;99.90
55721;DHT22;41626;53.098;6.168;2022-09-09T02:23:19;14.00;99.90
55721;DHT22;41626;53.098;6.168;2022-09-09T02:25:46;14.10;99.90
55721;DHT22;41626;53.098;6.168;2022-09-09T02:28:14;13.90;99.90
55721;DHT22;41626;53.098;6.168;2022-09-09T02:30:42;14.10;99.90
55721;DHT22;41626;53.098;6.168;2022-09-09T02:33:13;14.00;99.90
55721;DHT22;41626;53.098;6.168;2022-09-09T02:35:42;14.00;99.90
55721;DHT22;41626;53.098;6.168;2022-09-09T02:38:12;13.90;99.90
55721;DHT22;41626;53.098;6.168;2022-09-09T02:40:38;13.90;99.90
55721;DHT22;41626;53.098;6.168;2022-09-09T02:43:04;14.00;99.90
55721;DHT22;41626;53.098;6.168;2022-09-09T02:52:00;14.00;99.90
55721;DHT22;41626;53.098;6.168;2022-09-09T02:54:32;13.80;99.90
55721;DHT22;41626;53.098;6.168;2022-09-09T02:57:11;14.00;99.90
55721;DHT22;41626;53.098;6.168;2022-09-09T02:59:38;14.00;99.90
55721;DHT22;41626;53.098;6.168;2022-09-09T03:02:04;13.80;99.90
55721;DHT22;41626;53.098;6.168;2022-09-09T03:04:30;14.00;99.90
55721;DHT22;41626;53.098;6.168;2022-09-09T03:06:57;14.00;99.90
55721;DHT22;41626;53.098;6.168;2022-09-09T03:09:23;14.00;99.90
55721;DHT22;41626;53.098;6.168;2022-09-09T03:11:50;14.10;99.90
55721;DHT22;41626;53.098;6.168;2022-09-09T03:14:16;14.00;99.90
55721;DHT22;41626;53.098;6.168;2022-09-09T03:16:42;14.10;99.90
55721;DHT22;41626;53.098;6.168;2022-09-09T03:19:08;13.90;99.90
55721;DHT22;41626;53.098;6.168;2022-09-09T03:21:34;14.20;99.90
55721;DHT22;41626;53.098;6.168;2022-09-09T03:24:01;14.20;99.90
55721;DHT22;41626;53.098;6.168;2022-09-09T03:26:29;14.20;99.90
55721;DHT22;41626;53.098;6.168;2022-09-09T03:28:56;14.20;99.90
55721;DHT22;41626;53.098;6.168;2022-09-09T03:31:21;14.30;99.90
55721;DHT22;41626;53.098;6.168;2022-09-09T03:33:47;14.10;99.90
55721;DHT22;41626;53.098;6.168;2022-09-09T03:36:14;14.30;99.90
55721;DHT22;41626;53.098;6.168;2022-09-09T03:38:40;14.20;99.90
55721;DHT22;41626;53.098;6.168;2022-09-09T03:41:06;14.10;99.90
55721;DHT22;41626;53.098;6.168;2022-09-09T03:43:33;14.40;99.90
55721;DHT22;41626;53.098;6.168;2022-09-09T03:45:59;14.10;99.90
55721;DHT22;41626;53.098;6.168;2022-09-09T03:48:26;14.30;99.90
55721;DHT22;41626;53.098;6.168;2022-09-09T03:50:54;14.10;99.90
55721;DHT22;41626;53.098;6.168;2022-09-09T03:53:22;14.40;99.90
55721;DHT22;41626;53.098;6.168;2022-09-09T03:55:53;14.20;99.90
55721;DHT22;41626;53.098;6.168;2022-09-09T03:58:25;14.10;99.90
55721;DHT22;41626;53.098;6.168;2022-09-09T04:00:55;14.20;99.90
55721;DHT22;41626;53.098;6.168;2022-09-09T04:03:22;14.20;99.90
55721;DHT22;41626;53.098;6.168;2022-09-09T04:05:50;14.10;99.90
55721;DHT22;41626;53.098;6.168;2022-09-09T04:08:16;14.50;99.90
55721;DHT22;41626;53.098;6.168;2022-09-09T04:10:45;14.50;99.90
55721;DHT22;41626;53.098;6.168;2022-09-09T04:13:12;14.10;99.90
55721;DHT22;41626;53.098;6.168;2022-09-09T04:15:40;14.30;99.90
55721;DHT22;41626;53.098;6.168;2022-09-09T04:18:06;14.10;99.90
55721;DHT22;41626;53.098;6.168;2022-09-09T04:20:32;14.10;99.90
55721;DHT22;41626;53.098;6.168;2022-09-09T04:22:58;14.10;99.90
55721;DHT22;41626;53.098;6.168;2022-09-09T04:25:24;14.30;99.90
55721;DHT22;41626;53.098;6.168;2022-09-09T04:27:57;14.40;99.90
55721;DHT22;41626;53.098;6.168;2022-09-09T04:30:24;14.20;99.90
55721;DHT22;41626;53.098;6.168;2022-09-09T04:32:50;14.20;99.90
55721;DHT22;41626;53.098;6.168;2022-09-09T04:35:16;14.40;99.90
55721;DHT22;41626;53.098;6.168;2022-09-09T04:37:42;14.40;99.90
55721;DHT22;41626;53.098;6.168;2022-09-09T04:40:08;14.30;99.90
55721;DHT22;41626;53.098;6.168;2022-09-09T04:42:38;14.40;99.90
55721;DHT22;41626;53.098;6.168;2022-09-09T04:45:05;14.10;99.90
55721;DHT22;41626;53.098;6.168;2022-09-09T04:47:32;14.10;99.90
55721;DHT22;41626;53.098;6.168;2022-09-09T04:49:58;14.30;99.90
55721;DHT22;41626;53.098;6.168;2022-09-09T04:52:23;14.10;99.90
55721;DHT22;41626;53.098;6.168;2022-09-09T04:54:49;14.30;99.90
55721;DHT22;41626;53.098;6.168;2022-09-09T04:57:14;14.20;99.90
55721;DHT22;41626;53.098;6.168;2022-09-09T04:59:40;14.40;99.90
55721;DHT22;41626;53.098;6.168;2022-09-09T05:02:06;14.40;99.90
55721;DHT22;41626;53.098;6.168;2022-09-09T05:04:31;14.20;99.90
55721;DHT22;41626;53.098;6.168;2022-09-09T05:06:58;14.40;99.90
55721;DHT22;41626;53.098;6.168;2022-09-09T05:09:24;14.20;99.90
55721;DHT22;41626;53.098;6.168;2022-09-09T05:11:50;14.40;99.90
55721;DHT22;41626;53.098;6.168;2022-09-09T05:14:17;14.30;99.90
55721;DHT22;41626;53.098;6.168;2022-09-09T05:16:44;14.40;99.90
55721;DHT22;41626;53.098;6.168;2022-09-09T05:19:10;14.40;99.90
55721;DHT22;41626;53.098;6.168;2022-09-09T05:21:36;14.20;99.90
55721;DHT22;41626;53.098;6.168;2022-09-09T05:24:02;14.20;99.90
55721;DHT22;41626;53.098;6.168;2022-09-09T05:26:28;14.30;99.90
55721;DHT22;41626;53.098;6.168;2022-09-09T05:28:55;14.30;99.90
55721;DHT22;41626;53.098;6.168;2022-09-09T05:31:21;14.50;99.90
55721;DHT22;41626;53.098;6.168;2022-09-09T05:33:47;14.40;99.90
55721;DHT22;41626;53.098;6.168;2022-09-09T05:36:17;14.20;99.90
55721;DHT22;41626;53.098;6.168;2022-09-09T05:38:43;14.40;99.90
55721;DHT22;41626;53.098;6.168;2022-09-09T05:41:10;14.30;99.90
55721;DHT22;41626;53.098;6.168;2022-09-09T05:43:41;14.20;99.90
55721;DHT22;41626;53.098;6.168;2022-09-09T05:46:18;14.10;99.90
55721;DHT22;41626;53.098;6.168;2022-09-09T05:48:45;14.10;99.90
55721;DHT22;41626;53.098;6.168;2022-09-09T05:51:13;14.40;99.90
55721;DHT22;41626;53.098;6.168;2022-09-09T05:53:41;14.40;99.90
55721;DHT22;41626;53.098;6.168;2022-09-09T05:56:12;14.20;99.90
55721;DHT22;41626;53.098;6.168;2022-09-09T05:58:40;14.20;99.90
55721;DHT22;41626;53.098;6.168;2022-09-09T06:01:08;14.50;99.90
55721;DHT22;41626;53.098;6.168;2022-09-09T06:03:38;14.50;99.90
55721;DHT22;41626;53.098;6.168;2022-09-09T06:06:04;14.50;99.90
55721;DHT22;41626;53.098;6.168;2022-09-09T06:08:32;14.60;99.90
55721;DHT22;41626;53.098;6.168;2022-09-09T06:11:02;14.40;99.90
55721;DHT22;41626;53.098;6.168;2022-09-09T06:13:28;14.60;99.90
55721;DHT22;41626;53.098;6.168;2022-09-09T06:15:54;14.50;99.90
55721;DHT22;41626;53.098;6.168;2022-09-09T06:18:20;14.60;99.90
55721;DHT22;41626;53.098;6.168;2022-09-09T06:20:56;14.40;99.90
55721;DHT22;41626;53.098;6.168;2022-09-09T06:23:22;14.50;99.90
55721;DHT22;41626;53.098;6.168;2022-09-09T06:25:48;14.50;99.90
55721;DHT22;41626;53.098;6.168;2022-09-09T06:28:15;14.30;99.90
55721;DHT22;41626;53.098;6.168;2022-09-09T06:30:41;14.50;99.90
55721;DHT22;41626;53.098;6.168;2022-09-09T06:33:06;14.40;99.90
55721;DHT22;41626;53.098;6.168;2022-09-09T06:35:32;14.30;99.90
55721;DHT22;41626;53.098;6.168;2022-09-09T06:37:58;14.60;99.90
55721;DHT22;41626;53.098;6.168;2022-09-09T06:40:24;14.30;99.90
55721;DHT22;41626;53.098;6.168;2022-09-09T06:42:50;14.50;99.90
55721;DHT22;41626;53.098;6.168;2022-09-09T06:45:16;14.40;99.90
55721;DHT22;41626;53.098;6.168;2022-09-09T06:47:43;14.60;99.90
55721;DHT22;41626;53.098;6.168;2022-09-09T06:50:09;14.60;99.90
55721;DHT22;41626;53.098;6.168;2022-09-09T06:52:36;14.40;99.90
55721;DHT22;41626;53.098;6.168;2022-09-09T06:55:02;14.50;99.90
55721;DHT22;41626;53.098;6.168;2022-09-09T06:57:28;14.70;99.90
55721;DHT22;41626;53.098;6.168;2022-09-09T06:59:54;14.70;99.90
55721;DHT22;41626;53.098;6.168;2022-09-09T07:02:19;14.50;99.90
55721;DHT22;41626;53.098;6.168;2022-09-09T07:04:45;14.70;99.90
55721;DHT22;41626;53.098;6.168;2022-09-09T07:07:11;14.60;99.90
55721;DHT22;41626;53.098;6.168;2022-09-09T07:09:42;14.60;99.90
55721;DHT22;41626;53.098;6.168;2022-09-09T07:12:07;14.70;99.90
55721;DHT22;41626;53.098;6.168;2022-09-09T07:14:33;14.90;99.90
55721;DHT22;41626;53.098;6.168;2022-09-09T07:17:01;15.00;99.90
55721;DHT22;41626;53.098;6.168;2022-09-09T07:19:27;14.70;99.90
55721;DHT22;41626;53.098;6.168;2022-09-09T07:21:52;14.90;99.90
55721;DHT22;41626;53.098;6.168;2022-09-09T07:24:18;14.90;99.90
55721;DHT22;41626;53.098;6.168;2022-09-09T07:26:43;14.90;99.90
55721;DHT22;41626;53.098;6.168;2022-09-09T07:29:10;15.00;99.90
55721;DHT22;41626;53.098;6.168;2022-09-09T07:31:39;14.80;99.90
55721;DHT22;41626;53.098;6.168;2022-09-09T07:34:05;15.10;99.90
55721;DHT22;41626;53.098;6.168;2022-09-09T07:36:40;14.90;99.90
55721;DHT22;41626;53.098;6.168;2022-09-09T07:39:10;15.20;99.90
55721;DHT22;41626;53.098;6.168;2022-09-09T07:41:40;15.10;99.90
55721;DHT22;41626;53.098;6.168;2022-09-09T07:44:08;15.20;99.90
55721;DHT22;41626;53.098;6.168;2022-09-09T07:46:34;15.40;99.90
55721;DHT22;41626;53.098;6.168;2022-09-09T07:49:01;15.30;99.90
55721;DHT22;41626;53.098;6.168;2022-09-09T07:51:46;15.40;99.90
55721;DHT22;41626;53.098;6.168;2022-09-09T07:54:15;15.40;99.90
55721;DHT22;41626;53.098;6.168;2022-09-09T07:56:42;15.50;99.90
55721;DHT22;41626;53.098;6.168;2022-09-09T07:59:08;15.60;99.90
55721;DHT22;41626;53.098;6.168;2022-09-09T08:01:45;15.50;99.90
55721;DHT22;41626;53.098;6.168;2022-09-09T08:04:17;15.60;99.90
55721;DHT22;41626;53.098;6.168;2022-09-09T08:06:55;15.70;99.90
55721;DHT22;41626;53.098;6.168;2022-09-09T08:09:21;15.70;99.90
55721;DHT22;41626;53.098;6.168;2022-09-09T08:11:50;15.70;99.90
55721;DHT22;41626;53.098;6.168;2022-09-09T08:14:16;16.10;99.90
55721;DHT22;41626;53.098;6.168;2022-09-09T08:16:44;16.20;99.90
55721;DHT22;41626;53.098;6.168;2022-09-09T08:19:10;16.40;99.90
55721;DHT22;41626;53.098;6.168;2022-09-09T08:21:38;16.40;99.90
55721;DHT22;41626;53.098;6.168;2022-09-09T08:24:07;16.50;99.90
55721;DHT22;41626;53.098;6.168;2022-09-09T08:26:35;16.30;99.90
55721;DHT22;41626;53.098;6.168;2022-09-09T08:29:03;16.40;99.90
55721;DHT22;41626;53.098;6.168;2022-09-09T08:31:37;16.30;99.90
55721;DHT22;41626;53.098;6.168;2022-09-09T08:34:04;16.40;99.90
55721;DHT22;41626;53.098;6.168;2022-09-09T08:36:33;16.30;99.90
55721;DHT22;41626;53.098;6.168;2022-09-09T08:38:59;16.00;99.90
55721;DHT22;41626;53.098;6.168;2022-09-09T08:52:38;16.70;99.90
55721;DHT22;41626;53.098;6.168;2022-09-09T08:55:26;17.00;99.90
55721;DHT22;41626;53.098;6.168;2022-09-09T08:57:56;16.90;99.90
55721;DHT22;41626;53.098;6.168;2022-09-09T09:00:22;17.10;99.90
55721;DHT22;41626;53.098;6.168;2022-09-09T09:03:03;17.00;99.90
55721;DHT22;41626;53.098;6.168;2022-09-09T09:06:04;17.00;99.90
55721;DHT22;41626;53.098;6.168;2022-09-09T09:08:29;17.30;99.90
55721;DHT22;41626;53.098;6.168;2022-09-09T09:10:57;17.20;99.90
55721;DHT22;41626;53.098;6.168;2022-09-09T09:13:45;17.50;99.90
55721;DHT22;41626;53.098;6.168;2022-09-09T09:18:48;17.60;99.90
55721;DHT22;41626;53.098;6.168;2022-09-09T09:21:39;17.60;99.90
55721;DHT22;41626;53.098;6.168;2022-09-09T09:27:36;17.40;99.90
55721;DHT22;41626;53.098;6.168;2022-09-09T09:30:19;17.30;99.90
55721;DHT22;41626;53.098;6.168;2022-09-09T09:33:08;17.40;99.90
55721;DHT22;41626;53.098;6.168;2022-09-09T09:35:36;17.50;99.90
55721;DHT22;41626;53.098;6.168;2022-09-09T09:40:53;17.50;99.90
55721;DHT22;41626;53.098;6.168;2022-09-09T09:43:31;17.60;99.90
55721;DHT22;41626;53.098;6.168;2022-09-09T09:45:58;17.70;99.90
55721;DHT22;41626;53.098;6.168;2022-09-09T09:48:25;17.80;99.90
55721;DHT22;41626;53.098;6.168;2022-09-09T09:53:28;17.90;99.90
55721;DHT22;41626;53.098;6.168;2022-09-09T09:55:55;18.00;99.90
55721;DHT22;41626;53.098;6.168;2022-09-09T09:58:23;18.00;99.90
55721;DHT22;41626;53.098;6.168;2022-09-09T10:00:51;17.90;99.90
55721;DHT22;41626;53.098;6.168;2022-09-09T10:03:30;17.70;99.90
55721;DHT22;41626;53.098;6.168;2022-09-09T10:05:57;17.80;99.90
55721;DHT22;41626;53.098;6.168;2022-09-09T10:08:27;17.90;99.90
55721;DHT22;41626;53.098;6.168;2022-09-09T10:11:04;18.00;99.90
55721;DHT22;41626;53.098;6.168;2022-09-09T10:18:58;17.90;99.90
55721;DHT22;41626;53.098;6.168;2022-09-09T10:29:40;17.90;99.90
55721;DHT22;41626;53.098;6.168;2022-09-09T10:32:26;17.80;99.90
55721;DHT22;41626;53.098;6.168;2022-09-09T10:35:04;17.70;99.90
55721;DHT22;41626;53.098;6.168;2022-09-09T10:40:33;17.80;99.90
55721;DHT22;41626;53.098;6.168;2022-09-09T10:55:14;18.30;99.90
55721;DHT22;41626;53.098;6.168;2022-09-09T10:57:47;18.20;99.90
55721;DHT22;41626;53.098;6.168;2022-09-09T11:00:18;18.30;99.90
55721;DHT22;41626;53.098;6.168;2022-09-09T11:02:54;18.40;99.90
55721;DHT22;41626;53.098;6.168;2022-09-09T11:08:21;18.50;99.90
55721;DHT22;41626;53.098;6.168;2022-09-09T11:21:47;18.50;99.90
55721;DHT22;41626;53.098;6.168;2022-09-09T11:32:40;17.60;99.90
55721;DHT22;41626;53.098;6.168;2022-09-09T11:38:08;17.50;99.90
55721;DHT22;41626;53.098;6.168;2022-09-09T11:40:37;17.40;99.90
55721;DHT22;41626;53.098;6.168;2022-09-09T11:43:23;17.50;99.90
55721;DHT22;41626;53.098;6.168;2022-09-09T11:45:54;17.40;99.90
55721;DHT22;41626;53.098;6.168;2022-09-09T11:48:33;17.70;99.90
55721;DHT22;41626;53.098;6.168;2022-09-09T11:51:10;17.60;99.90
55721;DHT22;41626;53.098;6.168;2022-09-09T11:54:28;17.60;99.90
55721;DHT22;41626;53.098;6.168;2022-09-09T11:56:54;17.50;99.90
55721;DHT22;41626;53.098;6.168;2022-09-09T11:59:23;17.40;99.90
55721;DHT22;41626;53.098;6.168;2022-09-09T12:01:59;17.50;99.90
55721;DHT22;41626;53.098;6.168;2022-09-09T12:05:08;17.70;99.90
55721;DHT22;41626;53.098;6.168;2022-09-09T12:07:41;17.90;99.90
55721;DHT22;41626;53.098;6.168;2022-09-09T12:10:29;18.30;99.90
55721;DHT22;41626;53.098;6.168;2022-09-09T12:12:55;18.30;99.90
55721;DHT22;41626;53.098;6.168;2022-09-09T12:15:33;18.30;99.90
55721;DHT22;41626;53.098;6.168;2022-09-09T12:17:58;18.50;99.90
55721;DHT22;41626;53.098;6.168;2022-09-09T12:20:39;18.70;99.90
55721;DHT22;41626;53.098;6.168;2022-09-09T12:29:12;19.00;99.90
55721;DHT22;41626;53.098;6.168;2022-09-09T12:31:47;19.20;99.90
55721;DHT22;41626;53.098;6.168;2022-09-09T12:34:38;19.00;99.90
55721;DHT22;41626;53.098;6.168;2022-09-09T12:39:56;18.90;99.90
55721;DHT22;41626;53.098;6.168;2022-09-09T12:42:23;19.00;99.90
55721;DHT22;41626;53.098;6.168;2022-09-09T12:44:54;19.10;99.90
55721;DHT22;41626;53.098;6.168;2022-09-09T12:47:22;19.10;99.90
55721;DHT22;41626;53.098;6.168;2022-09-09T12:49:50;19.00;99.90
55721;DHT22;41626;53.098;6.168;2022-09-09T12:52:29;19.00;99.90
55721;DHT22;41626;53.098;6.168;2022-09-09T12:54:58;18.90;99.90
55721;DHT22;41626;53.098;6.168;2022-09-09T12:57:26;18.80;99.90
55721;DHT22;41626;53.098;6.168;2022-09-09T13:00:05;18.90;99.90
55721;DHT22;41626;53.098;6.168;2022-09-09T13:02:32;18.90;99.90
55721;DHT22;41626;53.098;6.168;2022-09-09T13:05:12;18.80;99.90
55721;DHT22;41626;53.098;6.168;2022-09-09T13:07:40;19.00;99.90
55721;DHT22;41626;53.098;6.168;2022-09-09T13:10:05;18.90;99.90
55721;DHT22;41626;53.098;6.168;2022-09-09T13:12:32;18.80;99.90
55721;DHT22;41626;53.098;6.168;2022-09-09T13:14:57;18.60;99.90
55721;DHT22;41626;53.098;6.168;2022-09-09T13:17:28;18.30;99.90
55721;DHT22;41626;53.098;6.168;2022-09-09T13:19:57;18.20;99.90
55721;DHT22;41626;53.098;6.168;2022-09-09T13:22:33;18.20;99.90
55721;DHT22;41626;53.098;6.168;2022-09-09T13:27:38;18.60;99.90
55721;DHT22;41626;53.098;6.168;2022-09-09T13:30:31;18.90;99.90
55721;DHT22;41626;53.098;6.168;2022-09-09T13:36:02;19.20;99.90
55721;DHT22;41626;53.098;6.168;2022-09-09T13:38:38;18.90;99.90
55721;DHT22;41626;53.098;6.168;2022-09-09T13:41:09;18.80;99.90
55721;DHT22;41626;53.098;6.168;2022-09-09T13:43:38;18.70;99.90
55721;DHT22;41626;53.098;6.168;2022-09-09T13:49:01;18.50;99.90
55721;DHT22;41626;53.098;6.168;2022-09-09T13:54:00;18.80;99.90
55721;DHT22;41626;53.098;6.168;2022-09-09T13:56:26;19.10;99.90
55721;DHT22;41626;53.098;6.168;2022-09-09T13:58:51;19.40;99.90
55721;DHT22;41626;53.098;6.168;2022-09-09T14:01:17;19.40;99.90
55721;DHT22;41626;53.098;6.168;2022-09-09T14:03:43;19.70;99.90
55721;DHT22;41626;53.098;6.168;2022-09-09T14:06:10;19.10;99.90
55721;DHT22;41626;53.098;6.168;2022-09-09T14:08:36;19.20;99.90
55721;DHT22;41626;53.098;6.168;2022-09-09T14:11:06;19.30;99.90
55721;DHT22;41626;53.098;6.168;2022-09-09T14:13:32;19.50;99.90
55721;DHT22;41626;53.098;6.168;2022-09-09T14:15:57;19.40;99.90
55721;DHT22;41626;53.098;6.168;2022-09-09T14:18:23;19.70;99.90
55721;DHT22;41626;53.098;6.168;2022-09-09T14:20:51;19.50;99.90
55721;DHT22;41626;53.098;6.168;2022-09-09T14:23:17;19.40;99.90
55721;DHT22;41626;53.098;6.168;2022-09-09T14:25:43;19.10;99.90
55721;DHT22;41626;53.098;6.168;2022-09-09T14:28:10;19.20;99.90
55721;DHT22;41626;53.098;6.168;2022-09-09T14:30:38;19.20;99.90
55721;DHT22;41626;53.098;6.168;2022-09-09T14:33:04;19.00;99.90
55721;DHT22;41626;53.098;6.168;2022-09-09T14:35:30;18.90;99.90
55721;DHT22;41626;53.098;6.168;2022-09-09T14:37:55;19.00;99.90
55721;DHT22;41626;53.098;6.168;2022-09-09T14:40:21;19.00;99.90
55721;DHT22;41626;53.098;6.168;2022-09-09T14:42:47;19.10;99.90
55721;DHT22;41626;53.098;6.168;2022-09-09T14:45:13;18.90;99.90
55721;DHT22;41626;53.098;6.168;2022-09-09T14:47:38;18.80;99.90
55721;DHT22;41626;53.098;6.168;2022-09-09T14:50:05;18.70;99.90
55721;DHT22;41626;53.098;6.168;2022-09-09T14:52:31;18.70;99.90
55721;DHT22;41626;53.098;6.168;2022-09-09T14:54:57;18.70;99.90
55721;DHT22;41626;53.098;6.168;2022-09-09T14:57:22;18.80;99.90
55721;DHT22;41626;53.098;6.168;2022-09-09T14:59:48;18.80;99.90
55721;DHT22;41626;53.098;6.168;2022-09-09T15:02:15;18.90;99.90
55721;DHT22;41626;53.098;6.168;2022-09-09T15:04:41;19.10;99.90
55721;DHT22;41626;53.098;6.168;2022-09-09T15:07:07;19.10;99.90
55721;DHT22;41626;53.098;6.168;2022-09-09T15:09:33;19.00;99.90
55721;DHT22;41626;53.098;6.168;2022-09-09T15:11:58;19.10;99.90
55721;DHT22;41626;53.098;6.168;2022-09-09T15:14:24;19.00;99.90
55721;DHT22;41626;53.098;6.168;2022-09-09T15:16:51;18.90;99.90
55721;DHT22;41626;53.098;6.168;2022-09-09T15:19:17;18.80;99.90
55721;DHT22;41626;53.098;6.168;2022-09-09T15:21:42;18.70;99.90
55721;DHT22;41626;53.098;6.168;2022-09-09T15:24:08;18.70;99.90
55721;DHT22;41626;53.098;6.168;2022-09-09T15:26:34;18.30;99.90
55721;DHT22;41626;53.098;6.168;2022-09-09T15:29:03;17.80;99.90
55721;DHT22;41626;53.098;6.168;2022-09-09T15:31:30;17.40;99.90
55721;DHT22;41626;53.098;6.168;2022-09-09T15:34:04;17.10;99.90
55721;DHT22;41626;53.098;6.168;2022-09-09T15:36:41;17.10;99.90
55721;DHT22;41626;53.098;6.168;2022-09-09T15:39:09;17.00;99.90
55721;DHT22;41626;53.098;6.168;2022-09-09T15:41:37;16.80;99.90
55721;DHT22;41626;53.098;6.168;2022-09-09T15:44:04;16.90;99.90
55721;DHT22;41626;53.098;6.168;2022-09-09T15:46:42;16.90;99.90
55721;DHT22;41626;53.098;6.168;2022-09-09T15:49:20;16.80;99.90
55721;DHT22;41626;53.098;6.168;2022-09-09T15:51:57;16.70;99.90
55721;DHT22;41626;53.098;6.168;2022-09-09T15:54:25;16.70;99.90
55721;DHT22;41626;53.098;6.168;2022-09-09T15:56:59;16.80;99.90
55721;DHT22;41626;53.098;6.168;2022-09-09T15:59:26;16.80;99.90
55721;DHT22;41626;53.098;6.168;2022-09-09T16:01:53;16.90;99.90
55721;DHT22;41626;53.098;6.168;2022-09-09T16:04:21;16.90;99.90
55721;DHT22;41626;53.098;6.168;2022-09-09T16:06:52;17.10;99.90
55721;DHT22;41626;53.098;6.168;2022-09-09T16:09:18;17.20;99.90
55721;DHT22;41626;53.098;6.168;2022-09-09T16:11:44;17.40;99.90
55721;DHT22;41626;53.098;6.168;2022-09-09T16:14:12;17.30;99.90
55721;DHT22;41626;53.098;6.168;2022-09-09T16:16:38;17.30;99.90
55721;DHT22;41626;53.098;6.168;2022-09-09T16:19:06;17.20;99.90
55721;DHT22;41626;53.098;6.168;2022-09-09T16:21:35;17.20;99.90
55721;DHT22;41626;53.098;6.168;2022-09-09T16:24:03;17.40;99.90
55721;DHT22;41626;53.098;6.168;2022-09-09T16:26:31;17.40;99.90
55721;DHT22;41626;53.098;6.168;2022-09-09T16:28:57;17.40;99.90
55721;DHT22;41626;53.098;6.168;2022-09-09T16:31:24;17.40;99.90
55721;DHT22;41626;53.098;6.168;2022-09-09T16:33:50;17.20;99.90
55721;DHT22;41626;53.098;6.168;2022-09-09T16:36:21;17.40;99.90
55721;DHT22;41626;53.098;6.168;2022-09-09T16:38:51;17.40;99.90
55721;DHT22;41626;53.098;6.168;2022-09-09T16:41:17;17.40;99.90
55721;DHT22;41626;53.098;6.168;2022-09-09T16:43:45;17.40;99.90
55721;DHT22;41626;53.098;6.168;2022-09-09T16:46:15;17.30;99.90
55721;DHT22;41626;53.098;6.168;2022-09-09T16:48:42;17.40;99.90
55721;DHT22;41626;53.098;6.168;2022-09-09T16:51:13;17.20;99.90
55721;DHT22;41626;53.098;6.168;2022-09-09T16:53:39;17.10;99.90
55721;DHT22;41626;53.098;6.168;2022-09-09T16:56:08;17.00;99.90
55721;DHT22;41626;53.098;6.168;2022-09-09T16:58:34;17.00;99.90
55721;DHT22;41626;53.098;6.168;2022-09-09T17:01:03;17.10;99.90
55721;DHT22;41626;53.098;6.168;2022-09-09T17:03:29;17.10;99.90
55721;DHT22;41626;53.098;6.168;2022-09-09T17:05:55;17.10;99.90
55721;DHT22;41626;53.098;6.168;2022-09-09T17:08:23;17.00;99.90
55721;DHT22;41626;53.098;6.168;2022-09-09T17:10:49;17.10;99.90
55721;DHT22;41626;53.098;6.168;2022-09-09T17:13:15;16.90;99.90
55721;DHT22;41626;53.098;6.168;2022-09-09T17:15:45;17.10;99.90
55721;DHT22;41626;53.098;6.168;2022-09-09T17:18:12;17.00;99.90
55721;DHT22;41626;53.098;6.168;2022-09-09T17:20:39;16.80;99.90
55721;DHT22;41626;53.098;6.168;2022-09-09T17:23:10;16.90;99.90
55721;DHT22;41626;53.098;6.168;2022-09-09T17:25:36;16.80;99.90
55721;DHT22;41626;53.098;6.168;2022-09-09T17:28:03;16.90;99.90
55721;DHT22;41626;53.098;6.168;2022-09-09T17:30:33;16.80;99.90
55721;DHT22;41626;53.098;6.168;2022-09-09T17:33:00;16.90;99.90
55721;DHT22;41626;53.098;6.168;2022-09-09T17:35:25;16.80;99.90
55721;DHT22;41626;53.098;6.168;2022-09-09T17:37:55;16.70;99.90
55721;DHT22;41626;53.098;6.168;2022-09-09T17:40:22;16.80;99.90
55721;DHT22;41626;53.098;6.168;2022-09-09T17:42:47;16.70;99.90
55721;DHT22;41626;53.098;6.168;2022-09-09T17:45:14;16.60;99.90
55721;DHT22;41626;53.098;6.168;2022-09-09T17:47:40;16.80;99.90
55721;DHT22;41626;53.098;6.168;2022-09-09T17:50:09;16.80;99.90
55721;DHT22;41626;53.098;6.168;2022-09-09T17:52:36;16.70;99.90
55721;DHT22;41626;53.098;6.168;2022-09-09T17:55:04;16.70;99.90
55721;DHT22;41626;53.098;6.168;2022-09-09T17:57:29;16.60;99.90
55721;DHT22;41626;53.098;6.168;2022-09-09T17:59:55;16.70;99.90
55721;DHT22;41626;53.098;6.168;2022-09-09T18:02:21;16.50;99.90
55721;DHT22;41626;53.098;6.168;2022-09-09T18:04:46;16.60;99.90
55721;DHT22;41626;53.098;6.168;2022-09-09T18:07:12;16.60;99.90